sensor_id;sensor_type;location;lat;lon;timestamp;temperature;humidity
1766;DHT22;880;52.452;8.656;2022-08-18T00:02:29;20.90;99.90
1766;DHT22;880;52.452;8.656;2022-08-18T00:04:57;20.90;99.90
1766;DHT22;880;52.452;8.656;2022-08-18T00:07:29;20.80;99.90
1766;DHT22;880;52.452;8.656;2022-08-18T00:09:59;20.80;99.90
1766;DHT22;880;52.452;8.656;2022-08-18T00:12:38;20.70;99.90
1766;DHT22;880;52.452;8.656;2022-08-18T00:15:12;20.60;99.90
1766;DHT22;880;52.452;8.656;2022-08-18T00:17:40;20.60;99.90
1766;DHT22;880;52.452;8.656;2022-08-18T00:20:11;20.60;99.90
1766;DHT22;880;52.452;8.656;2022-08-18T00:22:42;20.60;99.90
1766;DHT22;880;52.452;8.656;2022-08-18T00:25:11;20.60;99.90
1766;DHT22;880;52.452;8.656;2022-08-18T00:27:39;20.60;99.90
1766;DHT22;880;52.452;8.656;2022-08-18T00:30:13;20.60;99.90
1766;DHT22;880;52.452;8.656;2022-08-18T00:32:44;20.60;99.90
1766;DHT22;880;52.452;8.656;2022-08-18T00:35:28;20.60;99.90
1766;DHT22;880;52.452;8.656;2022-08-18T00:38:00;20.60;99.90
1766;DHT22;880;52.452;8.656;2022-08-18T00:40:38;20.60;99.90
1766;DHT22;880;52.452;8.656;2022-08-18T00:43:14;20.60;99.90
1766;DHT22;880;52.452;8.656;2022-08-18T00:45:45;20.50;99.90
1766;DHT22;880;52.452;8.656;2022-08-18T00:48:13;20.50;99.90
1766;DHT22;880;52.452;8.656;2022-08-18T00:50:45;20.50;99.90
1766;DHT22;880;52.452;8.656;2022-08-18T00:53:27;20.50;99.90
1766;DHT22;880;52.452;8.656;2022-08-18T00:56:12;20.40;99.90
1766;DHT22;880;52.452;8.656;2022-08-18T00:58:56;20.40;99.90
1766;DHT22;880;52.452;8.656;2022-08-18T01:01:28;20.40;99.90
1766;DHT22;880;52.452;8.656;2022-08-18T01:04:06;20.40;99.90
1766;DHT22;880;52.452;8.656;2022-08-18T01:06:42;20.40;99.90
1766;DHT22;880;52.452;8.656;2022-08-18T01:09:14;20.30;99.90
1766;DHT22;880;52.452;8.656;2022-08-18T01:11:44;20.20;99.90
1766;DHT22;880;52.452;8.656;2022-08-18T01:14:12;20.20;99.90
1766;DHT22;880;52.452;8.656;2022-08-18T01:16:43;20.10;99.90
1766;DHT22;880;52.452;8.656;2022-08-18T01:19:32;20.10;99.90
1766;DHT22;880;52.452;8.656;2022-08-18T01:22:26;20.00;99.90
1766;DHT22;880;52.452;8.656;2022-08-18T01:24:57;20.00;99.90
1766;DHT22;880;52.452;8.656;2022-08-18T01:27:51;19.90;99.90
1766;DHT22;880;52.452;8.656;2022-08-18T01:30:26;19.90;99.90
1766;DHT22;880;52.452;8.656;2022-08-18T01:32:53;19.80;99.90
1766;DHT22;880;52.452;8.656;2022-08-18T01:35:23;19.80;99.90
1766;DHT22;880;52.452;8.656;2022-08-18T01:37:52;19.80;99.90
1766;DHT22;880;52.452;8.656;2022-08-18T01:40:21;19.80;99.90
1766;DHT22;880;52.452;8.656;2022-08-18T01:43:09;19.70;99.90
1766;DHT22;880;52.452;8.656;2022-08-18T01:45:37;19.70;99.90
1766;DHT22;880;52.452;8.656;2022-08-18T01:48:05;19.70;99.90
1766;DHT22;880;52.452;8.656;2022-08-18T01:50:33;19.60;99.90
1766;DHT22;880;52.452;8.656;2022-08-18T01:53:03;19.60;99.90
1766;DHT22;880;52.452;8.656;2022-08-18T01:55:33;19.60;99.90
1766;DHT22;880;52.452;8.656;2022-08-18T01:58:02;19.60;99.90
1766;DHT22;880;52.452;8.656;2022-08-18T02:00:29;19.60;99.90
1766;DHT22;880;52.452;8.656;2022-08-18T02:02:59;19.60;99.90
1766;DHT22;880;52.452;8.656;2022-08-18T02:05:35;19.60;99.90
1766;DHT22;880;52.452;8.656;2022-08-18T02:08:08;19.50;99.90
1766;DHT22;880;52.452;8.656;2022-08-18T02:10:36;19.50;99.90
1766;DHT22;880;52.452;8.656;2022-08-18T02:13:04;19.50;99.90
1766;DHT22;880;52.452;8.656;2022-08-18T02:15:31;19.50;99.90
1766;DHT22;880;52.452;8.656;2022-08-18T02:17:58;19.50;99.90
1766;DHT22;880;52.452;8.656;2022-08-18T02:20:26;19.50;99.90
1766;DHT22;880;52.452;8.656;2022-08-18T02:22:53;19.40;99.90
1766;DHT22;880;52.452;8.656;2022-08-18T02:25:20;19.30;99.90
1766;DHT22;880;52.452;8.656;2022-08-18T02:27:48;19.30;99.90
1766;DHT22;880;52.452;8.656;2022-08-18T02:30:18;19.20;99.90
1766;DHT22;880;52.452;8.656;2022-08-18T02:32:45;19.20;99.90
1766;DHT22;880;52.452;8.656;2022-08-18T02:35:12;19.20;99.90
1766;DHT22;880;52.452;8.656;2022-08-18T02:37:40;19.30;99.90
1766;DHT22;880;52.452;8.656;2022-08-18T02:40:09;19.30;99.90
1766;DHT22;880;52.452;8.656;2022-08-18T02:42:42;19.40;99.90
1766;DHT22;880;52.452;8.656;2022-08-18T02:45:11;19.30;99.90
1766;DHT22;880;52.452;8.656;2022-08-18T02:47:39;19.40;99.90
1766;DHT22;880;52.452;8.656;2022-08-18T02:50:08;19.40;99.90
1766;DHT22;880;52.452;8.656;2022-08-18T02:52:36;19.40;99.90
1766;DHT22;880;52.452;8.656;2022-08-18T02:55:06;19.40;99.90
1766;DHT22;880;52.452;8.656;2022-08-18T02:57:33;19.40;99.90
1766;DHT22;880;52.452;8.656;2022-08-18T03:00:00;19.40;99.90
1766;DHT22;880;52.452;8.656;2022-08-18T03:02:27;19.40;99.90
1766;DHT22;880;52.452;8.656;2022-08-18T03:04:54;19.30;99.90
1766;DHT22;880;52.452;8.656;2022-08-18T03:07:21;19.30;99.90
1766;DHT22;880;52.452;8.656;2022-08-18T03:09:48;19.30;99.90
1766;DHT22;880;52.452;8.656;2022-08-18T03:12:15;19.30;99.90
1766;DHT22;880;52.452;8.656;2022-08-18T03:14:42;19.40;99.90
1766;DHT22;880;52.452;8.656;2022-08-18T03:17:09;19.30;99.90
1766;DHT22;880;52.452;8.656;2022-08-18T03:19:36;19.20;99.90
1766;DHT22;880;52.452;8.656;2022-08-18T03:22:06;19.20;99.90
1766;DHT22;880;52.452;8.656;2022-08-18T03:24:54;19.10;99.90
1766;DHT22;880;52.452;8.656;2022-08-18T03:27:21;19.00;99.90
1766;DHT22;880;52.452;8.656;2022-08-18T03:29:48;18.90;99.90
1766;DHT22;880;52.452;8.656;2022-08-18T03:32:16;18.90;99.90
1766;DHT22;880;52.452;8.656;2022-08-18T03:34:44;18.90;99.90
1766;DHT22;880;52.452;8.656;2022-08-18T03:37:11;18.80;99.90
1766;DHT22;880;52.452;8.656;2022-08-18T03:39:39;18.80;99.90
1766;DHT22;880;52.452;8.656;2022-08-18T03:42:07;18.80;99.90
1766;DHT22;880;52.452;8.656;2022-08-18T03:44:34;18.80;99.90
1766;DHT22;880;52.452;8.656;2022-08-18T03:47:06;18.80;99.90
1766;DHT22;880;52.452;8.656;2022-08-18T03:49:35;18.80;99.90
1766;DHT22;880;52.452;8.656;2022-08-18T03:52:06;18.90;99.90
1766;DHT22;880;52.452;8.656;2022-08-18T03:54:33;18.80;99.90
1766;DHT22;880;52.452;8.656;2022-08-18T03:57:00;18.80;99.90
1766;DHT22;880;52.452;8.656;2022-08-18T03:59:28;18.80;99.90
1766;DHT22;880;52.452;8.656;2022-08-18T04:01:58;18.80;99.90
1766;DHT22;880;52.452;8.656;2022-08-18T04:04:28;18.80;99.90
1766;DHT22;880;52.452;8.656;2022-08-18T04:07:02;18.80;99.90
1766;DHT22;880;52.452;8.656;2022-08-18T04:09:36;18.70;99.90
1766;DHT22;880;52.452;8.656;2022-08-18T04:12:10;18.60;99.90
1766;DHT22;880;52.452;8.656;2022-08-18T04:14:44;18.60;99.90
1766;DHT22;880;52.452;8.656;2022-08-18T04:17:18;18.60;99.90
1766;DHT22;880;52.452;8.656;2022-08-18T04:19:51;18.50;99.90
1766;DHT22;880;52.452;8.656;2022-08-18T04:22:19;18.60;99.90
1766;DHT22;880;52.452;8.656;2022-08-18T04:24:47;18.60;99.90
1766;DHT22;880;52.452;8.656;2022-08-18T04:27:17;18.60;99.90
1766;DHT22;880;52.452;8.656;2022-08-18T04:29:45;18.60;99.90
1766;DHT22;880;52.452;8.656;2022-08-18T04:32:12;18.70;99.90
1766;DHT22;880;52.452;8.656;2022-08-18T04:34:40;18.70;99.90
1766;DHT22;880;52.452;8.656;2022-08-18T04:37:08;18.70;99.90
1766;DHT22;880;52.452;8.656;2022-08-18T04:39:35;18.70;99.90
1766;DHT22;880;52.452;8.656;2022-08-18T04:42:03;18.70;99.90
1766;DHT22;880;52.452;8.656;2022-08-18T04:44:31;18.70;99.90
1766;DHT22;880;52.452;8.656;2022-08-18T04:46:59;18.70;99.90
1766;DHT22;880;52.452;8.656;2022-08-18T04:49:27;18.90;99.90
1766;DHT22;880;52.452;8.656;2022-08-18T04:51:54;19.00;99.90
1766;DHT22;880;52.452;8.656;2022-08-18T04:55:00;19.20;99.90
1766;DHT22;880;52.452;8.656;2022-08-18T04:57:28;19.30;99.90
1766;DHT22;880;52.452;8.656;2022-08-18T05:00:01;19.20;99.90
1766;DHT22;880;52.452;8.656;2022-08-18T05:02:30;19.30;99.90
1766;DHT22;880;52.452;8.656;2022-08-18T05:04:59;19.30;99.90
1766;DHT22;880;52.452;8.656;2022-08-18T05:07:28;19.20;99.90
1766;DHT22;880;52.452;8.656;2022-08-18T05:09:55;19.50;99.90
1766;DHT22;880;52.452;8.656;2022-08-18T05:12:22;19.80;99.90
1766;DHT22;880;52.452;8.656;2022-08-18T05:14:53;20.20;99.90
1766;DHT22;880;52.452;8.656;2022-08-18T05:17:23;20.30;99.90
1766;DHT22;880;52.452;8.656;2022-08-18T05:19:59;20.20;99.90
1766;DHT22;880;52.452;8.656;2022-08-18T05:22:28;20.20;99.90
1766;DHT22;880;52.452;8.656;2022-08-18T05:24:57;20.00;99.90
1766;DHT22;880;52.452;8.656;2022-08-18T05:27:30;19.90;99.90
1766;DHT22;880;52.452;8.656;2022-08-18T05:30:02;19.80;99.90
1766;DHT22;880;52.452;8.656;2022-08-18T05:32:39;19.90;99.90
1766;DHT22;880;52.452;8.656;2022-08-18T05:35:24;20.00;99.90
1766;DHT22;880;52.452;8.656;2022-08-18T05:41:11;20.30;99.90
1766;DHT22;880;52.452;8.656;2022-08-18T05:43:45;20.10;99.90
1766;DHT22;880;52.452;8.656;2022-08-18T05:46:20;19.80;99.90
1766;DHT22;880;52.452;8.656;2022-08-18T05:48:52;19.80;99.90
1766;DHT22;880;52.452;8.656;2022-08-18T05:51:26;20.00;99.90
1766;DHT22;880;52.452;8.656;2022-08-18T05:53:57;19.80;99.90
1766;DHT22;880;52.452;8.656;2022-08-18T05:56:44;19.80;99.90
1766;DHT22;880;52.452;8.656;2022-08-18T05:59:25;19.80;99.90
1766;DHT22;880;52.452;8.656;2022-08-18T06:01:59;19.90;99.90
1766;DHT22;880;52.452;8.656;2022-08-18T06:04:52;20.20;99.90
1766;DHT22;880;52.452;8.656;2022-08-18T06:07:30;20.50;99.90
1766;DHT22;880;52.452;8.656;2022-08-18T06:10:01;20.80;99.90
1766;DHT22;880;52.452;8.656;2022-08-18T06:12:34;20.90;99.90
1766;DHT22;880;52.452;8.656;2022-08-18T06:15:17;21.00;99.90
1766;DHT22;880;52.452;8.656;2022-08-18T06:21:26;21.20;99.90
1766;DHT22;880;52.452;8.656;2022-08-18T06:24:30;21.10;99.90
1766;DHT22;880;52.452;8.656;2022-08-18T06:32:47;20.90;99.90
1766;DHT22;880;52.452;8.656;2022-08-18T06:35:32;20.70;99.90
1766;DHT22;880;52.452;8.656;2022-08-18T06:38:42;20.50;99.90
1766;DHT22;880;52.452;8.656;2022-08-18T06:44:31;20.70;99.90
1766;DHT22;880;52.452;8.656;2022-08-18T06:50:31;21.00;99.90
1766;DHT22;880;52.452;8.656;2022-08-18T06:53:06;21.10;99.90
1766;DHT22;880;52.452;8.656;2022-08-18T06:55:53;21.50;99.90
1766;DHT22;880;52.452;8.656;2022-08-18T06:58:25;21.70;99.90
1766;DHT22;880;52.452;8.656;2022-08-18T07:00:59;21.60;99.90
1766;DHT22;880;52.452;8.656;2022-08-18T07:03:48;21.60;99.90
1766;DHT22;880;52.452;8.656;2022-08-18T07:08:50;21.40;99.90
1766;DHT22;880;52.452;8.656;2022-08-18T07:11:29;21.50;99.90
1766;DHT22;880;52.452;8.656;2022-08-18T07:14:12;21.70;99.90
1766;DHT22;880;52.452;8.656;2022-08-18T07:16:43;21.70;99.90
1766;DHT22;880;52.452;8.656;2022-08-18T07:19:28;21.50;99.90
1766;DHT22;880;52.452;8.656;2022-08-18T07:22:09;21.50;99.90
1766;DHT22;880;52.452;8.656;2022-08-18T07:24:45;21.50;99.90
1766;DHT22;880;52.452;8.656;2022-08-18T07:27:17;21.40;99.90
1766;DHT22;880;52.452;8.656;2022-08-18T07:30:11;21.50;99.90
1766;DHT22;880;52.452;8.656;2022-08-18T07:35:47;21.40;99.90
1766;DHT22;880;52.452;8.656;2022-08-18T07:38:24;21.40;99.90
1766;DHT22;880;52.452;8.656;2022-08-18T07:41:32;21.20;99.90
1766;DHT22;880;52.452;8.656;2022-08-18T07:47:19;21.10;99.90
1766;DHT22;880;52.452;8.656;2022-08-18T07:49:48;21.10;99.90
1766;DHT22;880;52.452;8.656;2022-08-18T07:52:39;21.30;99.90
1766;DHT22;880;52.452;8.656;2022-08-18T07:55:26;21.60;99.90
1766;DHT22;880;52.452;8.656;2022-08-18T08:03:40;22.20;99.90
1766;DHT22;880;52.452;8.656;2022-08-18T08:06:19;22.40;99.90
1766;DHT22;880;52.452;8.656;2022-08-18T08:11:57;22.30;99.90
1766;DHT22;880;52.452;8.656;2022-08-18T08:14:49;22.00;99.90
1766;DHT22;880;52.452;8.656;2022-08-18T08:17:29;22.00;99.90
1766;DHT22;880;52.452;8.656;2022-08-18T08:20:10;21.90;99.90
1766;DHT22;880;52.452;8.656;2022-08-18T08:32:15;21.90;99.90
1766;DHT22;880;52.452;8.656;2022-08-18T08:34:55;21.80;99.90
1766;DHT22;880;52.452;8.656;2022-08-18T08:37:51;21.70;99.90
1766;DHT22;880;52.452;8.656;2022-08-18T08:43:36;22.20;99.90
1766;DHT22;880;52.452;8.656;2022-08-18T08:46:20;22.20;99.90
1766;DHT22;880;52.452;8.656;2022-08-18T08:48:54;22.00;99.90
1766;DHT22;880;52.452;8.656;2022-08-18T08:54:18;21.80;99.90
1766;DHT22;880;52.452;8.656;2022-08-18T08:56:50;21.70;99.90
1766;DHT22;880;52.452;8.656;2022-08-18T08:59:20;21.60;99.90
1766;DHT22;880;52.452;8.656;2022-08-18T09:01:54;21.60;99.90
1766;DHT22;880;52.452;8.656;2022-08-18T09:05:43;21.60;99.90
1766;DHT22;880;52.452;8.656;2022-08-18T09:08:52;21.70;99.90
1766;DHT22;880;52.452;8.656;2022-08-18T09:11:48;21.90;99.90
1766;DHT22;880;52.452;8.656;2022-08-18T09:14:47;22.10;99.90
1766;DHT22;880;52.452;8.656;2022-08-18T09:20:48;22.20;99.90
1766;DHT22;880;52.452;8.656;2022-08-18T09:23:41;22.10;99.90
1766;DHT22;880;52.452;8.656;2022-08-18T09:29:26;22.50;99.90
1766;DHT22;880;52.452;8.656;2022-08-18T09:37:53;23.10;99.90
1766;DHT22;880;52.452;8.656;2022-08-18T09:40:57;22.90;99.90
1766;DHT22;880;52.452;8.656;2022-08-18T09:44:02;22.80;99.90
1766;DHT22;880;52.452;8.656;2022-08-18T09:51:53;23.00;99.90
1766;DHT22;880;52.452;8.656;2022-08-18T09:54:26;22.90;99.90
1766;DHT22;880;52.452;8.656;2022-08-18T09:57:21;22.90;99.90
1766;DHT22;880;52.452;8.656;2022-08-18T09:59:55;22.90;99.90
1766;DHT22;880;52.452;8.656;2022-08-18T10:05:27;22.80;99.90
1766;DHT22;880;52.452;8.656;2022-08-18T10:13:55;22.50;99.90
1766;DHT22;880;52.452;8.656;2022-08-18T10:16:52;22.50;99.90
1766;DHT22;880;52.452;8.656;2022-08-18T10:20:01;22.50;99.90
1766;DHT22;880;52.452;8.656;2022-08-18T10:22:56;22.40;99.90
1766;DHT22;880;52.452;8.656;2022-08-18T10:25:41;22.50;99.90
1766;DHT22;880;52.452;8.656;2022-08-18T10:28:53;22.60;99.90
1766;DHT22;880;52.452;8.656;2022-08-18T10:31:24;22.70;99.90
1766;DHT22;880;52.452;8.656;2022-08-18T10:36:53;22.70;99.90
1766;DHT22;880;52.452;8.656;2022-08-18T10:48:26;23.10;99.90
1766;DHT22;880;52.452;8.656;2022-08-18T10:51:08;23.00;99.90
1766;DHT22;880;52.452;8.656;2022-08-18T10:54:03;23.00;99.90
1766;DHT22;880;52.452;8.656;2022-08-18T10:56:56;23.10;99.90
1766;DHT22;880;52.452;8.656;2022-08-18T11:06:08;23.30;99.90
1766;DHT22;880;52.452;8.656;2022-08-18T11:09:00;23.30;99.90
1766;DHT22;880;52.452;8.656;2022-08-18T11:11:35;23.30;99.90
1766;DHT22;880;52.452;8.656;2022-08-18T11:24:17;25.10;99.90
1766;DHT22;880;52.452;8.656;2022-08-18T11:26:58;25.50;99.90
1766;DHT22;880;52.452;8.656;2022-08-18T11:29:42;25.90;99.90
1766;DHT22;880;52.452;8.656;2022-08-18T11:37:35;26.70;99.90
1766;DHT22;880;52.452;8.656;2022-08-18T11:40:31;26.90;99.90
1766;DHT22;880;52.452;8.656;2022-08-18T11:43:25;27.00;99.90
1766;DHT22;880;52.452;8.656;2022-08-18T11:48:58;27.30;99.90
1766;DHT22;880;52.452;8.656;2022-08-18T11:51:28;27.00;99.90
1766;DHT22;880;52.452;8.656;2022-08-18T11:54:18;27.10;99.90
1766;DHT22;880;52.452;8.656;2022-08-18T11:57:52;27.30;99.90
1766;DHT22;880;52.452;8.656;2022-08-18T12:06:25;27.50;99.90
1766;DHT22;880;52.452;8.656;2022-08-18T12:08:59;27.70;99.90
1766;DHT22;880;52.452;8.656;2022-08-18T12:11:35;27.90;99.90
1766;DHT22;880;52.452;8.656;2022-08-18T12:14:27;28.20;99.90
1766;DHT22;880;52.452;8.656;2022-08-18T12:17:01;28.50;99.90
1766;DHT22;880;52.452;8.656;2022-08-18T12:19:28;28.80;99.90
1766;DHT22;880;52.452;8.656;2022-08-18T12:22:00;29.10;99.90
1766;DHT22;880;52.452;8.656;2022-08-18T12:24:43;29.40;99.90
1766;DHT22;880;52.452;8.656;2022-08-18T12:27:15;29.60;99.90
1766;DHT22;880;52.452;8.656;2022-08-18T12:30:05;29.20;99.90
1766;DHT22;880;52.452;8.656;2022-08-18T12:32:42;28.80;99.90
1766;DHT22;880;52.452;8.656;2022-08-18T12:35:22;28.90;99.90
1766;DHT22;880;52.452;8.656;2022-08-18T12:37:50;29.00;99.90
1766;DHT22;880;52.452;8.656;2022-08-18T12:40:38;28.90;99.90
1766;DHT22;880;52.452;8.656;2022-08-18T12:43:05;29.00;99.90
1766;DHT22;880;52.452;8.656;2022-08-18T12:45:33;28.90;99.90
1766;DHT22;880;52.452;8.656;2022-08-18T12:48:03;28.70;99.90
1766;DHT22;880;52.452;8.656;2022-08-18T12:50:33;28.80;99.90
1766;DHT22;880;52.452;8.656;2022-08-18T12:53:19;28.70;99.90
1766;DHT22;880;52.452;8.656;2022-08-18T12:56:24;28.70;99.90
1766;DHT22;880;52.452;8.656;2022-08-18T12:59:01;28.40;99.90
1766;DHT22;880;52.452;8.656;2022-08-18T13:01:31;28.30;99.90
1766;DHT22;880;52.452;8.656;2022-08-18T13:04:00;28.60;99.90
1766;DHT22;880;52.452;8.656;2022-08-18T13:06:47;28.90;99.90
1766;DHT22;880;52.452;8.656;2022-08-18T13:09:29;29.30;99.90
1766;DHT22;880;52.452;8.656;2022-08-18T13:12:17;29.60;99.90
1766;DHT22;880;52.452;8.656;2022-08-18T13:14:45;29.60;99.90
1766;DHT22;880;52.452;8.656;2022-08-18T13:17:13;29.40;99.90
1766;DHT22;880;52.452;8.656;2022-08-18T13:20:11;29.00;99.90
1766;DHT22;880;52.452;8.656;2022-08-18T13:22:40;28.80;99.90
1766;DHT22;880;52.452;8.656;2022-08-18T13:25:10;28.60;99.90
1766;DHT22;880;52.452;8.656;2022-08-18T13:27:54;28.60;99.90
1766;DHT22;880;52.452;8.656;2022-08-18T13:30:27;28.70;99.90
1766;DHT22;880;52.452;8.656;2022-08-18T13:32:59;28.80;99.90
1766;DHT22;880;52.452;8.656;2022-08-18T13:35:47;28.90;99.90
1766;DHT22;880;52.452;8.656;2022-08-18T13:38:22;28.90;99.90
1766;DHT22;880;52.452;8.656;2022-08-18T13:40:56;28.80;99.90
1766;DHT22;880;52.452;8.656;2022-08-18T13:43:33;28.60;99.90
1766;DHT22;880;52.452;8.656;2022-08-18T13:46:05;28.60;99.90
1766;DHT22;880;52.452;8.656;2022-08-18T13:48:35;28.50;99.90
1766;DHT22;880;52.452;8.656;2022-08-18T13:51:04;28.30;99.90
1766;DHT22;880;52.452;8.656;2022-08-18T13:53:36;28.10;99.90
1766;DHT22;880;52.452;8.656;2022-08-18T13:56:16;28.00;99.90
1766;DHT22;880;52.452;8.656;2022-08-18T13:58:45;27.80;99.90
1766;DHT22;880;52.452;8.656;2022-08-18T14:01:19;27.60;99.90
1766;DHT22;880;52.452;8.656;2022-08-18T14:04:06;27.60;99.90
1766;DHT22;880;52.452;8.656;2022-08-18T14:06:38;27.70;99.90
1766;DHT22;880;52.452;8.656;2022-08-18T14:09:17;27.60;99.90
1766;DHT22;880;52.452;8.656;2022-08-18T14:11:45;27.50;99.90
1766;DHT22;880;52.452;8.656;2022-08-18T14:14:17;27.50;99.90
1766;DHT22;880;52.452;8.656;2022-08-18T14:16:44;27.60;99.90
1766;DHT22;880;52.452;8.656;2022-08-18T14:19:11;27.70;99.90
1766;DHT22;880;52.452;8.656;2022-08-18T14:21:57;27.80;99.90
1766;DHT22;880;52.452;8.656;2022-08-18T14:24:44;28.00;99.90
1766;DHT22;880;52.452;8.656;2022-08-18T14:27:35;28.00;99.90
1766;DHT22;880;52.452;8.656;2022-08-18T14:30:06;28.10;99.90
1766;DHT22;880;52.452;8.656;2022-08-18T14:32:36;28.20;99.90
1766;DHT22;880;52.452;8.656;2022-08-18T14:35:15;28.20;99.90
1766;DHT22;880;52.452;8.656;2022-08-18T14:38:06;28.20;99.90
1766;DHT22;880;52.452;8.656;2022-08-18T14:40:37;28.20;99.90
1766;DHT22;880;52.452;8.656;2022-08-18T14:43:10;28.00;99.90
1766;DHT22;880;52.452;8.656;2022-08-18T14:45:40;28.20;99.90
1766;DHT22;880;52.452;8.656;2022-08-18T14:48:16;28.40;99.90
1766;DHT22;880;52.452;8.656;2022-08-18T14:50:48;28.40;99.90
1766;DHT22;880;52.452;8.656;2022-08-18T14:53:19;28.30;99.90
1766;DHT22;880;52.452;8.656;2022-08-18T14:55:50;28.10;99.90
1766;DHT22;880;52.452;8.656;2022-08-18T14:58:18;27.90;99.90
1766;DHT22;880;52.452;8.656;2022-08-18T15:00:55;27.70;99.90
1766;DHT22;880;52.452;8.656;2022-08-18T15:03:28;27.80;99.90
1766;DHT22;880;52.452;8.656;2022-08-18T15:05:58;28.00;99.90
1766;DHT22;880;52.452;8.656;2022-08-18T15:08:32;28.00;99.90
1766;DHT22;880;52.452;8.656;2022-08-18T15:11:02;28.00;99.90
1766;DHT22;880;52.452;8.656;2022-08-18T15:13:39;27.70;99.90
1766;DHT22;880;52.452;8.656;2022-08-18T15:16:08;27.70;99.90
1766;DHT22;880;52.452;8.656;2022-08-18T15:18:40;27.90;99.90
1766;DHT22;880;52.452;8.656;2022-08-18T15:21:09;28.00;99.90
1766;DHT22;880;52.452;8.656;2022-08-18T15:24:09;28.00;99.90
1766;DHT22;880;52.452;8.656;2022-08-18T15:26:56;28.10;99.90
1766;DHT22;880;52.452;8.656;2022-08-18T15:29:32;28.20;99.90
1766;DHT22;880;52.452;8.656;2022-08-18T15:32:24;28.40;99.90
1766;DHT22;880;52.452;8.656;2022-08-18T15:34:52;28.60;99.90
1766;DHT22;880;52.452;8.656;2022-08-18T15:37:19;28.60;99.90
1766;DHT22;880;52.452;8.656;2022-08-18T15:39:59;28.70;99.90
1766;DHT22;880;52.452;8.656;2022-08-18T15:42:28;28.70;99.90
1766;DHT22;880;52.452;8.656;2022-08-18T15:44:58;28.80;99.90
1766;DHT22;880;52.452;8.656;2022-08-18T15:47:39;29.00;99.90
1766;DHT22;880;52.452;8.656;2022-08-18T15:50:08;28.80;99.90
1766;DHT22;880;52.452;8.656;2022-08-18T15:52:55;28.60;99.90
1766;DHT22;880;52.452;8.656;2022-08-18T15:55:29;28.30;99.90
1766;DHT22;880;52.452;8.656;2022-08-18T15:58:03;28.10;99.90
1766;DHT22;880;52.452;8.656;2022-08-18T16:00:38;27.90;99.90
1766;DHT22;880;52.452;8.656;2022-08-18T16:03:10;27.80;99.90
1766;DHT22;880;52.452;8.656;2022-08-18T16:05:48;27.80;99.90
1766;DHT22;880;52.452;8.656;2022-08-18T16:08:21;27.80;99.90
1766;DHT22;880;52.452;8.656;2022-08-18T16:10:50;27.70;99.90
1766;DHT22;880;52.452;8.656;2022-08-18T16:13:18;27.50;99.90
1766;DHT22;880;52.452;8.656;2022-08-18T16:15:46;27.40;99.90
1766;DHT22;880;52.452;8.656;2022-08-18T16:18:17;27.40;99.90
1766;DHT22;880;52.452;8.656;2022-08-18T16:20:45;27.40;99.90
1766;DHT22;880;52.452;8.656;2022-08-18T16:23:13;27.30;99.90
1766;DHT22;880;52.452;8.656;2022-08-18T16:25:41;27.30;99.90
1766;DHT22;880;52.452;8.656;2022-08-18T16:28:09;27.40;99.90
1766;DHT22;880;52.452;8.656;2022-08-18T16:30:39;27.60;99.90
1766;DHT22;880;52.452;8.656;2022-08-18T16:33:06;27.60;99.90
1766;DHT22;880;52.452;8.656;2022-08-18T16:35:34;27.60;99.90
1766;DHT22;880;52.452;8.656;2022-08-18T16:38:07;27.40;99.90
1766;DHT22;880;52.452;8.656;2022-08-18T16:40:35;27.30;99.90
1766;DHT22;880;52.452;8.656;2022-08-18T16:43:03;27.30;99.90
1766;DHT22;880;52.452;8.656;2022-08-18T16:45:31;27.20;99.90
1766;DHT22;880;52.452;8.656;2022-08-18T16:48:01;27.30;99.90
1766;DHT22;880;52.452;8.656;2022-08-18T16:50:28;27.40;99.90
1766;DHT22;880;52.452;8.656;2022-08-18T16:52:56;27.50;99.90
1766;DHT22;880;52.452;8.656;2022-08-18T16:55:23;27.60;99.90
1766;DHT22;880;52.452;8.656;2022-08-18T16:57:50;27.70;99.90
1766;DHT22;880;52.452;8.656;2022-08-18T17:00:41;27.70;99.90
1766;DHT22;880;52.452;8.656;2022-08-18T17:03:27;27.70;99.90
1766;DHT22;880;52.452;8.656;2022-08-18T17:06:16;27.70;99.90
1766;DHT22;880;52.452;8.656;2022-08-18T17:08:44;27.50;99.90
1766;DHT22;880;52.452;8.656;2022-08-18T17:11:14;27.40;99.90
1766;DHT22;880;52.452;8.656;2022-08-18T17:13:45;27.40;99.90
1766;DHT22;880;52.452;8.656;2022-08-18T17:16:15;27.20;99.90
1766;DHT22;880;52.452;8.656;2022-08-18T17:18:43;26.90;99.90
1766;DHT22;880;52.452;8.656;2022-08-18T17:21:13;26.80;99.90
1766;DHT22;880;52.452;8.656;2022-08-18T17:23:41;26.80;99.90
1766;DHT22;880;52.452;8.656;2022-08-18T17:26:44;26.70;99.90
1766;DHT22;880;52.452;8.656;2022-08-18T17:29:31;26.70;99.90
1766;DHT22;880;52.452;8.656;2022-08-18T17:32:28;26.60;99.90
1766;DHT22;880;52.452;8.656;2022-08-18T17:35:27;26.50;99.90
1766;DHT22;880;52.452;8.656;2022-08-18T17:38:04;26.40;99.90
1766;DHT22;880;52.452;8.656;2022-08-18T17:40:45;26.30;99.90
1766;DHT22;880;52.452;8.656;2022-08-18T17:43:18;26.30;99.90
1766;DHT22;880;52.452;8.656;2022-08-18T17:45:52;26.20;99.90
1766;DHT22;880;52.452;8.656;2022-08-18T17:48:49;26.10;99.90
1766;DHT22;880;52.452;8.656;2022-08-18T17:51:33;25.90;99.90
1766;DHT22;880;52.452;8.656;2022-08-18T17:54:35;25.80;99.90
1766;DHT22;880;52.452;8.656;2022-08-18T17:57:30;25.80;99.90
1766;DHT22;880;52.452;8.656;2022-08-18T18:00:03;25.80;99.90
1766;DHT22;880;52.452;8.656;2022-08-18T18:02:40;25.80;99.90
1766;DHT22;880;52.452;8.656;2022-08-18T18:05:10;25.70;99.90
1766;DHT22;880;52.452;8.656;2022-08-18T18:13:32;25.70;99.90
1766;DHT22;880;52.452;8.656;2022-08-18T18:16:23;25.70;99.90
1766;DHT22;880;52.452;8.656;2022-08-18T18:18:58;25.60;99.90
1766;DHT22;880;52.452;8.656;2022-08-18T18:21:30;25.70;99.90
1766;DHT22;880;52.452;8.656;2022-08-18T18:24:19;25.60;99.90
1766;DHT22;880;52.452;8.656;2022-08-18T18:26:56;25.50;99.90
1766;DHT22;880;52.452;8.656;2022-08-18T18:32:21;25.50;99.90
1766;DHT22;880;52.452;8.656;2022-08-18T18:35:15;25.40;99.90
1766;DHT22;880;52.452;8.656;2022-08-18T18:37:46;25.30;99.90
1766;DHT22;880;52.452;8.656;2022-08-18T18:40:28;25.20;99.90
1766;DHT22;880;52.452;8.656;2022-08-18T18:43:23;25.10;99.90
1766;DHT22;880;52.452;8.656;2022-08-18T18:46:10;25.00;99.90
1766;DHT22;880;52.452;8.656;2022-08-18T19:00:43;24.60;99.90
1766;DHT22;880;52.452;8.656;2022-08-18T19:03:30;24.50;99.90
1766;DHT22;880;52.452;8.656;2022-08-18T19:08:49;24.30;99.90
1766;DHT22;880;52.452;8.656;2022-08-18T19:14:55;24.10;99.90
1766;DHT22;880;52.452;8.656;2022-08-18T19:17:38;24.00;99.90
1766;DHT22;880;52.452;8.656;2022-08-18T19:20:12;23.90;99.90
1766;DHT22;880;52.452;8.656;2022-08-18T19:25:40;23.90;99.90
1766;DHT22;880;52.452;8.656;2022-08-18T19:31:47;23.70;99.90
1766;DHT22;880;52.452;8.656;2022-08-18T19:34:24;23.60;99.90
1766;DHT22;880;52.452;8.656;2022-08-18T19:37:11;23.40;99.90
1766;DHT22;880;52.452;8.656;2022-08-18T19:40:19;23.40;99.90
1766;DHT22;880;52.452;8.656;2022-08-18T19:42:57;23.30;99.90
1766;DHT22;880;52.452;8.656;2022-08-18T19:48:42;23.20;99.90
1766;DHT22;880;52.452;8.656;2022-08-18T19:51:33;23.20;99.90
1766;DHT22;880;52.452;8.656;2022-08-18T20:05:54;23.10;99.90
1766;DHT22;880;52.452;8.656;2022-08-18T20:09:17;23.00;99.90